Time;durP1;ratioP1;P1;durP2;ratioP2;P2;SDS_P1;SDS_P2;PMS_P1;PMS_P2;Temp;Humidity;BMP_temperature;BMP_pressure;BME280_temperature;BME280_humidity;BME280_pressure;Samples;Min_cycle;Max_cycle;Signal;HPM_P1;HPM_P2
2023/09/28 00:01:59;;;;;;;4.20;3.80;;;19.70;99.90;;;;;;5052267;28;20428;-80
2023/09/28 00:04:24;;;;;;;7.53;4.30;;;19.70;99.90;;;;;;5052120;28;20658;-80
2023/09/28 00:06:50;;;;;;;5.23;4.63;;;19.70;99.90;;;;;;5044182;28;20301;-80
2023/09/28 00:09:16;;;;;;;7.17;4.17;;;19.70;99.90;;;;;;5052346;28;20583;-81
2023/09/28 00:11:42;;;;;;;6.40;4.70;;;19.70;1.00;;;;;;5031665;28;20189;-80
2023/09/28 00:14:07;;;;;;;7.30;4.17;;;19.70;1.00;;;;;;5051909;28;20645;-81
2023/09/28 00:16:33;;;;;;;5.00;4.07;;;19.60;1.00;;;;;;5035083;28;20194;-79
2023/09/28 00:18:59;;;;;;;5.30;4.63;;;19.60;1.00;;;;;;5050949;28;20186;-81
2023/09/28 00:21:25;;;;;;;8.00;4.03;;;19.60;1.00;;;;;;5045298;28;20186;-80
2023/09/28 00:23:52;;;;;;;5.20;4.13;;;19.60;1.00;;;;;;5050490;28;20335;-81
2023/09/28 00:26:19;;;;;;;7.70;4.07;;;19.50;1.00;;;;;;5051571;28;20475;-79
2023/09/28 00:28:44;;;;;;;6.83;3.70;;;19.50;1.00;;;;;;5033069;28;20531;-81
2023/09/28 00:31:10;;;;;;;6.37;4.60;;;19.40;27.20;;;;;;5034664;28;20989;-80
2023/09/28 00:33:35;;;;;;;7.73;4.43;;;19.40;35.10;;;;;;5032704;28;20194;-79
2023/09/28 00:36:01;;;;;;;4.87;4.00;;;19.40;14.20;;;;;;5055338;28;20193;-82
2023/09/28 00:38:26;;;;;;;6.10;3.90;;;19.30;1.00;;;;;;5034288;28;20241;-81
2023/09/28 00:40:52;;;;;;;4.70;3.57;;;19.40;1.00;;;;;;5053436;28;20200;-81
2023/09/28 00:43:25;;;;;;;7.73;4.13;;;19.40;1.00;;;;;;5056404;28;20206;-82
2023/09/28 00:45:51;;;;;;;6.47;4.20;;;19.40;1.00;;;;;;5054875;28;20683;-80
2023/09/28 00:48:17;;;;;;;10.50;4.57;;;19.50;1.00;;;;;;5038528;28;20429;-81
2023/09/28 00:50:42;;;;;;;6.80;4.13;;;19.50;1.00;;;;;;5053139;28;20186;-78
2023/09/28 00:53:08;;;;;;;5.97;4.10;;;19.50;1.00;;;;;;5049364;28;20233;-79
2023/09/28 00:55:36;;;;;;;4.30;3.60;;;19.50;1.00;;;;;;5031472;28;20174;-80
2023/09/28 00:58:03;;;;;;;7.90;4.27;;;19.40;1.00;;;;;;5045482;28;20491;-80
2023/09/28 01:00:32;;;;;;;5.23;3.83;;;19.50;1.00;;;;;;5049783;28;20432;-80
2023/09/28 01:02:59;;;;;;;4.90;4.23;;;19.50;1.00;;;;;;5047785;28;20453;-80
2023/09/28 01:05:31;;;;;;;5.43;4.07;;;19.50;1.00;;;;;;5049836;28;20435;-81
2023/09/28 01:08:05;;;;;;;4.83;4.30;;;19.50;1.00;;;;;;5049275;28;20447;-81
2023/09/28 01:10:34;;;;;;;4.63;4.23;;;19.50;1.00;;;;;;5049536;28;20431;-81
2023/09/28 01:13:12;;;;;;;5.37;4.10;;;19.50;1.00;;;;;;5048473;28;20473;-80
2023/09/28 01:15:39;;;;;;;6.57;4.37;;;19.50;1.00;;;;;;5045212;28;20452;-79
2023/09/28 01:18:09;;;;;;;8.40;4.37;;;19.50;1.00;;;;;;5050063;28;20439;-80
2023/09/28 01:20:35;;;;;;;7.93;4.10;;;19.50;1.00;;;;;;5049333;28;20444;-80
2023/09/28 01:23:03;;;;;;;7.03;4.63;;;19.50;1.00;;;;;;5049025;28;20466;-81
2023/09/28 01:25:28;;;;;;;4.90;3.83;;;19.50;1.00;;;;;;5051978;28;20527;-80
2023/09/28 01:27:54;;;;;;;5.17;4.53;;;19.50;1.00;;;;;;5050733;28;20583;-80
2023/09/28 01:30:20;;;;;;;5.43;4.10;;;19.50;1.00;;;;;;5050221;28;20264;-80
2023/09/28 01:32:46;;;;;;;5.90;3.90;;;19.50;1.00;;;;;;5048767;28;20695;-80
2023/09/28 01:35:12;;;;;;;5.27;3.87;;;19.50;1.00;;;;;;5051262;28;20432;-80
2023/09/28 01:37:50;;;;;;;5.27;4.20;;;19.50;1.00;;;;;;5051596;28;20186;-79
2023/09/28 01:40:16;;;;;;;4.00;3.60;;;19.50;1.00;;;;;;5028094;28;20182;-82
2023/09/28 01:42:42;;;;;;;5.37;4.10;;;19.50;1.00;;;;;;5050272;28;20828;-80
2023/09/28 01:45:08;;;;;;;5.50;3.77;;;19.50;1.00;;;;;;5032556;28;20622;-80
2023/09/28 01:47:34;;;;;;;7.07;4.70;;;19.40;1.00;;;;;;5050228;28;20468;-80
2023/09/28 01:50:00;;;;;;;9.40;4.13;;;19.50;1.00;;;;;;5051184;28;20182;-81
2023/09/28 01:52:26;;;;;;;6.10;4.03;;;19.40;1.00;;;;;;5047727;28;20285;-80
2023/09/28 01:54:52;;;;;;;4.00;3.33;;;19.40;1.00;;;;;;5051115;28;20532;-80
2023/09/28 01:57:17;;;;;;;4.30;3.40;;;19.50;1.00;;;;;;5049411;28;20269;-80
2023/09/28 01:59:43;;;;;;;5.00;3.40;;;19.50;1.00;;;;;;5034085;28;20194;-81
2023/09/28 02:02:08;;;;;;;7.07;3.20;;;19.50;1.00;;;;;;5050305;28;20206;-80
2023/09/28 02:04:37;;;;;;;3.70;3.17;;;19.50;99.90;;;;;;5049751;28;20608;-80
2023/09/28 02:07:04;;;;;;;3.80;3.43;;;19.50;99.90;;;;;;5051167;28;20290;-80
2023/09/28 02:09:30;;;;;;;3.87;3.20;;;19.50;1.00;;;;;;5048614;28;20444;-80
2023/09/28 02:11:55;;;;;;;5.30;3.80;;;19.40;1.00;;;;;;5043203;28;20469;-81
2023/09/28 02:14:22;;;;;;;5.73;3.70;;;19.40;1.00;;;;;;5049210;28;20541;-80
2023/09/28 02:16:50;;;;;;;5.37;3.47;;;19.30;1.00;;;;;;5033124;28;20196;-81
2023/09/28 02:19:16;;;;;;;4.30;3.20;;;19.30;1.00;;;;;;5051302;28;20443;-80
2023/09/28 02:21:41;;;;;;;4.73;3.30;;;19.20;5.10;;;;;;5049518;28;20445;-79
2023/09/28 02:24:08;;;;;;;4.47;3.47;;;19.20;1.00;;;;;;5048085;28;20949;-81
2023/09/28 02:26:34;;;;;;;4.13;3.33;;;19.20;1.00;;;;;;5049235;28;20460;-79
2023/09/28 02:28:59;;;;;;;6.33;3.87;;;19.20;1.00;;;;;;5050622;28;20442;-79
2023/09/28 02:31:25;;;;;;;5.33;3.60;;;19.20;1.00;;;;;;5049100;28;20232;-80
2023/09/28 02:33:51;;;;;;;3.53;3.23;;;19.10;1.00;;;;;;5032761;28;20794;-80
2023/09/28 02:36:16;;;;;;;8.20;3.43;;;19.10;1.00;;;;;;5050820;28;20188;-80
2023/09/28 02:38:43;;;;;;;3.40;2.90;;;19.10;1.00;;;;;;5029932;28;20194;-78
2023/09/28 02:41:16;;;;;;;6.10;3.00;;;19.10;1.00;;;;;;5049623;28;20749;-80
2023/09/28 02:43:41;;;;;;;3.70;2.70;;;19.10;1.00;;;;;;5047334;28;20452;-78
2023/09/28 02:46:07;;;;;;;5.50;3.23;;;19.10;1.00;;;;;;5050539;28;20525;-80
2023/09/28 02:48:33;;;;;;;4.27;3.00;;;19.20;1.00;;;;;;5049599;28;20260;-80
2023/09/28 02:50:59;;;;;;;4.13;2.80;;;19.20;1.00;;;;;;5050622;28;20178;-79
2023/09/28 02:53:25;;;;;;;4.03;2.80;;;19.30;99.90;;;;;;5050728;28;20459;-81
2023/09/28 02:55:51;;;;;;;7.57;3.30;;;19.30;99.90;;;;;;5048846;28;20177;-80
2023/09/28 02:58:16;;;;;;;4.77;3.10;;;19.30;99.90;;;;;;5053963;28;20459;-80
2023/09/28 03:00:42;;;;;;;4.37;3.20;;;19.30;99.90;;;;;;5050654;28;20182;-81
2023/09/28 03:03:09;;;;;;;4.00;3.60;;;19.40;99.90;;;;;;5053570;28;20216;-80
2023/09/28 03:05:38;;;;;;;6.53;2.90;;;19.40;99.90;;;;;;5053797;28;20533;-80
2023/09/28 03:08:09;;;;;;;4.30;3.57;;;19.40;99.90;;;;;;5036886;28;20432;-80
2023/09/28 03:10:44;;;;;;;4.70;2.90;;;19.50;99.90;;;;;;5053570;28;21087;-80
2023/09/28 03:13:11;;;;;;;4.13;3.50;;;19.40;99.90;;;;;;5053988;28;20454;-80
2023/09/28 03:15:39;;;;;;;4.83;2.77;;;19.40;99.90;;;;;;5055622;28;20500;-81
2023/09/28 03:18:05;;;;;;;4.50;2.80;;;19.40;99.90;;;;;;5054162;28;20444;-81
2023/09/28 03:20:31;;;;;;;3.87;2.93;;;19.50;99.90;;;;;;5057155;28;20432;-80
2023/09/28 03:22:56;;;;;;;4.27;2.90;;;19.40;99.90;;;;;;5053354;28;20655;-80
2023/09/28 03:25:22;;;;;;;4.10;3.00;;;19.40;99.90;;;;;;5054348;28;20190;-81
2023/09/28 03:27:52;;;;;;;6.23;3.37;;;19.40;99.90;;;;;;5054558;28;20212;-81
2023/09/28 03:30:19;;;;;;;4.67;3.20;;;19.40;99.90;;;;;;5038339;28;20174;-80
2023/09/28 03:32:47;;;;;;;3.90;3.30;;;19.30;1.00;;;;;;5053671;28;20461;-79
2023/09/28 03:35:13;;;;;;;6.77;4.00;;;19.30;1.00;;;;;;5033111;28;20973;-80
2023/09/28 03:37:40;;;;;;;10.50;4.30;;;19.30;1.00;;;;;;5053784;28;20432;-80
2023/09/28 03:40:10;;;;;;;6.37;3.70;;;19.30;1.00;;;;;;5053893;28;20432;-81
2023/09/28 03:42:48;;;;;;;4.90;3.57;;;19.30;1.00;;;;;;5046132;28;20468;-80
2023/09/28 03:45:22;;;;;;;6.67;3.93;;;19.30;1.00;;;;;;5034554;28;20819;-80
2023/09/28 03:47:52;;;;;;;4.70;3.20;;;19.30;1.00;;;;;;5051597;28;20472;-80
2023/09/28 03:50:19;;;;;;;5.93;3.30;;;19.20;1.00;;;;;;5032641;28;20440;-81
2023/09/28 03:52:45;;;;;;;4.30;3.73;;;19.20;1.00;;;;;;5049439;28;20479;-80
2023/09/28 03:55:12;;;;;;;4.50;3.37;;;19.10;1.00;;;;;;5051223;28;20436;-80
2023/09/28 03:57:39;;;;;;;7.97;4.00;;;19.10;1.00;;;;;;5051564;28;20198;-80
2023/09/28 04:00:06;;;;;;;5.20;3.77;;;19.10;1.00;;;;;;5051135;28;20436;-80
2023/09/28 04:02:32;;;;;;;6.10;3.70;;;19.10;72.40;;;;;;5050779;28;20482;-80
2023/09/28 04:04:58;;;;;;;7.27;4.03;;;19.10;99.90;;;;;;5051084;28;20432;-80
2023/09/28 04:07:23;;;;;;;6.07;3.40;;;19.10;99.90;;;;;;5051013;28;20210;-80
2023/09/28 04:09:49;;;;;;;4.93;3.83;;;19.00;99.90;;;;;;5047722;28;20185;-83
2023/09/28 04:12:15;;;;;;;6.03;3.50;;;19.10;99.90;;;;;;5050796;28;20703;-81
2023/09/28 04:14:40;;;;;;;4.90;3.47;;;19.10;99.90;;;;;;5051828;28;20424;-80
2023/09/28 04:17:06;;;;;;;5.57;3.97;;;19.10;99.90;;;;;;5050819;28;20664;-81
2023/09/28 04:19:31;;;;;;;7.83;3.63;;;19.10;1.00;;;;;;5051900;28;20204;-79
2023/09/28 04:21:57;;;;;;;4.13;3.57;;;19.10;1.00;;;;;;5049844;28;20198;-80
2023/09/28 04:24:22;;;;;;;5.27;4.30;;;19.10;1.00;;;;;;5051799;28;20190;-79
2023/09/28 04:26:48;;;;;;;5.13;3.60;;;19.20;1.00;;;;;;5051175;28;20202;-80
2023/09/28 04:29:13;;;;;;;7.27;3.50;;;19.20;1.00;;;;;;5049919;28;20179;-80
2023/09/28 04:31:42;;;;;;;4.60;3.60;;;19.20;1.00;;;;;;5051958;28;20272;-80
2023/09/28 04:34:07;;;;;;;4.97;3.90;;;19.20;1.00;;;;;;5033235;28;20186;-80
2023/09/28 04:36:38;;;;;;;6.10;3.50;;;19.20;1.00;;;;;;5034075;28;20455;-80
2023/09/28 04:39:04;;;;;;;4.53;4.00;;;19.10;1.00;;;;;;5051086;28;20269;-81
2023/09/28 04:41:31;;;;;;;6.10;4.03;;;19.10;1.00;;;;;;5051834;28;20436;-80
2023/09/28 04:43:58;;;;;;;5.50;3.47;;;19.10;1.00;;;;;;5048515;28;20491;-81
2023/09/28 04:46:23;;;;;;;6.17;4.07;;;19.10;1.00;;;;;;5047463;28;20508;-82
2023/09/28 04:48:49;;;;;;;7.83;4.60;;;19.00;1.00;;;;;;5051125;28;20428;-81
2023/09/28 04:51:14;;;;;;;4.93;3.47;;;19.00;1.00;;;;;;5048726;28;20214;-80
2023/09/28 04:53:40;;;;;;;5.80;4.20;;;18.90;1.00;;;;;;5052489;28;20210;-81
2023/09/28 04:56:12;;;;;;;6.80;4.47;;;18.90;99.90;;;;;;5049393;28;20182;-82
2023/09/28 04:58:38;;;;;;;5.20;4.30;;;18.80;99.90;;;;;;5052023;28;20216;-80
2023/09/28 05:01:06;;;;;;;8.20;4.80;;;18.80;99.90;;;;;;5049942;28;20551;-79
2023/09/28 05:03:31;;;;;;;5.47;4.03;;;18.70;99.90;;;;;;5053517;28;20447;-80
2023/09/28 05:06:00;;;;;;;6.53;3.53;;;18.70;1.00;;;;;;5052071;28;21167;-80
2023/09/28 05:08:25;;;;;;;4.53;3.97;;;18.60;1.00;;;;;;5052996;28;20189;-80
2023/09/28 05:10:52;;;;;;;6.23;3.83;;;18.60;37.50;;;;;;5052466;28;20416;-82
2023/09/28 05:13:18;;;;;;;9.07;3.93;;;18.60;99.90;;;;;;5051396;28;20190;-80
2023/09/28 05:15:44;;;;;;;5.60;4.40;;;18.60;99.90;;;;;;5035714;28;20435;-78
2023/09/28 05:18:10;;;;;;;6.70;4.43;;;18.60;99.90;;;;;;5048423;28;20178;-82
2023/09/28 05:20:36;;;;;;;5.60;3.93;;;18.60;99.90;;;;;;5034617;28;20193;-80
2023/09/28 05:23:03;;;;;;;7.60;3.77;;;18.50;99.90;;;;;;5034347;28;20436;-81
2023/09/28 05:25:29;;;;;;;6.93;4.03;;;18.50;1.00;;;;;;5051271;28;20443;-81
2023/09/28 05:27:54;;;;;;;5.30;3.93;;;18.50;1.00;;;;;;5047275;28;20437;-81
2023/09/28 05:30:20;;;;;;;6.10;3.93;;;18.50;1.00;;;;;;5052602;28;20193;-79
2023/09/28 05:32:46;;;;;;;4.50;4.10;;;18.50;41.90;;;;;;5052034;28;20273;-81
2023/09/28 05:35:11;;;;;;;4.63;3.80;;;18.40;59.20;;;;;;5052363;28;20240;-82
2023/09/28 05:37:37;;;;;;;11.70;4.83;;;18.40;1.00;;;;;;5051857;28;20184;-81
2023/09/28 05:40:04;;;;;;;5.40;3.80;;;18.40;22.20;;;;;;5051708;28;20178;-81
2023/09/28 05:42:30;;;;;;;6.60;3.83;;;18.40;1.00;;;;;;5032492;28;20872;-81
2023/09/28 05:44:56;;;;;;;5.97;4.13;;;18.40;1.00;;;;;;5026754;28;20532;-80
2023/09/28 05:47:21;;;;;;;7.07;4.27;;;18.40;1.00;;;;;;5049740;28;20791;-78
2023/09/28 05:49:49;;;;;;;14.50;4.50;;;18.50;1.00;;;;;;5032661;28;20178;-81
2023/09/28 05:52:14;;;;;;;8.40;4.90;;;18.60;1.00;;;;;;5049790;28;20288;-81
2023/09/28 05:54:40;;;;;;;7.77;4.47;;;18.60;1.00;;;;;;5048215;28;20528;-81
2023/09/28 05:57:06;;;;;;;6.67;4.27;;;18.70;99.90;;;;;;5045998;28;20198;-81
2023/09/28 05:59:31;;;;;;;7.80;5.10;;;18.80;99.90;;;;;;5049491;28;20277;-80
2023/09/28 06:01:57;;;;;;;8.47;4.07;;;18.90;99.90;;;;;;5052800;28;20192;-80
2023/09/28 06:04:25;;;;;;;5.00;4.50;;;19.00;17.80;;;;;;5051919;28;20568;-79
2023/09/28 06:06:50;;;;;;;6.27;4.10;;;19.30;1.00;;;;;;5051892;28;20198;-81
2023/09/28 06:09:20;;;;;;;5.60;4.33;;;19.90;99.90;;;;;;5034699;28;20439;-81
2023/09/28 06:11:46;;;;;;;8.27;5.03;;;20.70;99.90;;;;;;5051765;28;20173;-81
2023/09/28 06:14:15;;;;;;;9.07;4.67;;;21.60;99.90;;;;;;5048098;28;20435;-82
2023/09/28 06:16:42;;;;;;;8.30;4.77;;;22.40;23.30;;;;;;5051689;28;20816;-81
2023/09/28 06:19:08;;;;;;;9.50;4.77;;;23.10;1.00;;;;;;5032130;28;20448;-79
2023/09/28 06:21:34;;;;;;;7.23;5.40;;;23.80;1.00;;;;;;5033265;28;20998;-80
2023/09/28 06:24:00;;;;;;;11.00;5.33;;;24.50;1.00;;;;;;5053639;28;20445;-81
2023/09/28 06:26:26;;;;;;;11.13;5.20;;;24.90;1.00;;;;;;5051699;28;20528;-81
2023/09/28 06:28:51;;;;;;;10.50;5.20;;;25.50;99.90;;;;;;5051387;28;20181;-81
2023/09/28 06:31:19;;;;;;;7.60;5.90;;;25.90;99.90;;;;;;5051212;28;20495;-81
2023/09/28 06:33:45;;;;;;;11.57;6.40;;;26.20;99.90;;;;;;5054666;28;20213;-81
2023/09/28 06:36:12;;;;;;;8.73;6.10;;;26.40;99.90;;;;;;5053812;28;20474;-80
2023/09/28 06:38:37;;;;;;;7.60;5.77;;;26.60;99.90;;;;;;5035717;28;20459;-81
2023/09/28 06:41:03;;;;;;;7.80;5.67;;;27.10;99.90;;;;;;5057066;28;20433;-81
2023/09/28 06:43:29;;;;;;;9.70;5.13;;;27.40;99.90;;;;;;5051825;28;20195;-82
2023/09/28 06:45:56;;;;;;;8.00;5.53;;;28.00;99.90;;;;;;5056411;28;20519;-81
2023/09/28 06:48:22;;;;;;;12.50;5.37;;;28.80;99.90;;;;;;5052094;28;20442;-82
2023/09/28 06:50:49;;;;;;;8.67;5.07;;;29.60;99.90;;;;;;5054682;28;20425;-82
2023/09/28 06:53:18;;;;;;;8.30;4.97;;;30.20;99.90;;;;;;5053896;28;20199;-81
2023/09/28 06:55:44;;;;;;;9.63;4.87;;;30.60;99.90;;;;;;5053889;28;20633;-81
2023/09/28 06:58:14;;;;;;;8.23;5.10;;;30.90;99.90;;;;;;5038140;28;20439;-80
2023/09/28 07:00:41;;;;;;;6.30;4.60;;;31.30;99.90;;;;;;5050153;28;20494;-83
2023/09/28 07:03:08;;;;;;;7.90;4.87;;;31.70;99.90;;;;;;5059104;28;20505;-81
2023/09/28 07:05:38;;;;;;;6.00;3.97;;;31.90;99.90;;;;;;5053485;28;20410;-82
2023/09/28 07:08:05;;;;;;;6.73;4.17;;;32.50;99.90;;;;;;5052681;28;20438;-81
2023/09/28 07:10:35;;;;;;;10.83;4.43;;;32.70;99.90;;;;;;5053772;28;20436;-82
2023/09/28 07:13:03;;;;;;;6.33;4.40;;;33.10;99.90;;;;;;5036058;28;20974;-82
2023/09/28 07:15:30;;;;;;;8.70;4.40;;;32.20;99.90;;;;;;5034761;28;20440;-82
2023/09/28 07:17:56;;;;;;;6.33;3.90;;;31.00;99.90;;;;;;5023501;28;20441;-80
2023/09/28 07:20:22;;;;;;;6.97;3.60;;;29.70;99.90;;;;;;5048023;28;20955;-81
2023/09/28 07:22:48;;;;;;;12.97;5.13;;;28.40;99.90;;;;;;5050640;28;20832;-81
2023/09/28 07:25:14;;;;;;;5.60;4.27;;;27.40;99.90;;;;;;5048775;28;20436;-79
2023/09/28 07:27:44;;;;;;;5.77;4.10;;;26.60;99.90;;;;;;5047161;28;20487;-79
2023/09/28 07:30:11;;;;;;;8.17;4.83;;;26.20;99.90;;;;;;5051298;28;20178;-81
2023/09/28 07:32:40;;;;;;;11.47;4.70;;;27.40;99.90;;;;;;5051010;28;20535;-81
2023/09/28 07:35:09;;;;;;;8.73;4.40;;;29.40;99.90;;;;;;5047223;28;20439;-82
2023/09/28 07:37:35;;;;;;;9.30;4.67;;;31.00;99.90;;;;;;5051420;28;20430;-82
2023/09/28 07:40:01;;;;;;;8.57;4.83;;;32.50;99.90;;;;;;5046985;28;20485;-82
2023/09/28 07:42:27;;;;;;;7.60;5.00;;;34.10;99.90;;;;;;5049048;28;20452;-82
2023/09/28 07:44:52;;;;;;;5.60;4.50;;;34.60;99.90;;;;;;5050237;28;20489;-82
2023/09/28 07:47:19;;;;;;;7.77;5.23;;;35.10;99.90;;;;;;5051429;28;20212;-83
2023/09/28 07:49:45;;;;;;;9.87;4.37;;;36.10;99.90;;;;;;5050282;28;20186;-82
2023/09/28 07:52:11;;;;;;;7.47;4.43;;;36.50;99.90;;;;;;5044052;28;20456;-82
2023/09/28 07:54:37;;;;;;;5.40;4.27;;;36.30;99.90;;;;;;5048560;28;20954;-82
2023/09/28 07:57:04;;;;;;;8.87;4.40;;;35.30;99.90;;;;;;5049993;28;20319;-82
2023/09/28 07:59:36;;;;;;;7.67;4.13;;;33.80;99.90;;;;;;5051996;28;20489;-81
2023/09/28 08:02:04;;;;;;;8.13;4.13;;;33.10;99.90;;;;;;5033775;28;20817;-83
2023/09/28 08:04:30;;;;;;;6.33;3.80;;;33.60;99.90;;;;;;5050916;28;21006;-82
2023/09/28 08:06:57;;;;;;;11.10;4.83;;;35.00;99.90;;;;;;5050288;28;20512;-82
2023/09/28 08:09:23;;;;;;;9.10;3.70;;;36.20;99.90;;;;;;5044837;28;20459;-82
2023/09/28 08:11:49;;;;;;;8.53;3.80;;;37.40;99.90;;;;;;5031374;28;20444;-83
2023/09/28 08:14:16;;;;;;;7.00;3.57;;;38.10;99.90;;;;;;5050081;28;20443;-80
2023/09/28 08:16:42;;;;;;;6.70;3.50;;;39.00;99.90;;;;;;5044348;28;20451;-83
2023/09/28 08:19:08;;;;;;;7.13;3.70;;;40.00;99.90;;;;;;5050150;28;20435;-80
2023/09/28 08:21:37;;;;;;;7.30;3.67;;;40.20;99.90;;;;;;5012396;28;20428;-83
2023/09/28 08:24:03;;;;;;;11.47;3.63;;;40.20;99.90;;;;;;5052671;28;20535;-82
2023/09/28 08:26:28;;;;;;;8.37;3.20;;;39.60;99.90;;;;;;5035960;28;20472;-80
2023/09/28 08:28:54;;;;;;;6.80;3.30;;;39.50;99.90;;;;;;5052537;28;20444;-80
2023/09/28 08:31:20;;;;;;;9.87;3.43;;;39.30;99.90;;;;;;5049864;28;20264;-81
2023/09/28 08:33:45;;;;;;;6.60;3.23;;;39.20;99.90;;;;;;5050999;28;20255;-81
2023/09/28 08:36:13;;;;;;;8.33;3.40;;;39.30;99.90;;;;;;5049192;28;20437;-82
2023/09/28 08:38:38;;;;;;;8.10;3.70;;;40.00;99.90;;;;;;5044676;28;20294;-81
2023/09/28 08:41:06;;;;;;;8.67;4.43;;;40.20;99.90;;;;;;5043156;28;20461;-82
2023/09/28 08:43:43;;;;;;;7.00;3.83;;;40.30;99.90;;;;;;5053229;28;20198;-80
2023/09/28 08:46:14;;;;;;;8.13;3.63;;;39.70;99.90;;;;;;5043869;28;20540;-81
2023/09/28 08:48:45;;;;;;;8.60;3.77;;;40.00;99.90;;;;;;5026967;28;20523;-81
2023/09/28 08:51:12;;;;;;;5.20;3.40;;;39.00;99.90;;;;;;5049275;28;20456;-80
2023/09/28 08:53:38;;;;;;;5.23;3.40;;;37.50;99.90;;;;;;5048900;28;20479;-82
2023/09/28 08:56:05;;;;;;;6.80;3.50;;;36.80;99.90;;;;;;5026847;28;20636;-81
2023/09/28 08:58:35;;;;;;;8.90;4.00;;;36.30;99.90;;;;;;5051802;28;20937;-81
2023/09/28 09:01:02;;;;;;;11.03;4.13;;;37.20;99.90;;;;;;5049137;28;20782;-81
2023/09/28 09:03:28;;;;;;;7.37;3.60;;;36.60;99.90;;;;;;5050238;28;20484;-81
2023/09/28 09:05:57;;;;;;;7.37;3.40;;;37.60;99.90;;;;;;5030587;28;20476;-82
2023/09/28 09:08:23;;;;;;;12.57;3.50;;;37.90;99.90;;;;;;5050608;28;20847;-82
2023/09/28 09:10:51;;;;;;;7.03;3.33;;;37.60;99.90;;;;;;5047834;28;20433;-81
2023/09/28 09:13:18;;;;;;;11.13;3.77;;;37.60;99.90;;;;;;5050054;28;20455;-82
2023/09/28 09:15:43;;;;;;;10.37;3.50;;;37.70;99.90;;;;;;5046459;28;20436;-82
2023/09/28 09:18:16;;;;;;;5.20;3.00;;;37.30;99.90;;;;;;5030094;28;20432;-82
2023/09/28 09:20:42;;;;;;;9.83;3.50;;;36.80;99.90;;;;;;5038965;28;20174;-81
2023/09/28 09:23:11;;;;;;;7.53;3.37;;;36.60;99.90;;;;;;5047827;28;20468;-81
2023/09/28 09:25:42;;;;;;;7.00;3.10;;;36.00;99.90;;;;;;5035454;28;20194;-82
2023/09/28 09:28:08;;;;;;;6.50;3.17;;;36.10;99.90;;;;;;5038514;28;20440;-82
2023/09/28 09:30:37;;;;;;;5.00;2.80;;;36.40;99.90;;;;;;5048869;28;20444;-81
2023/09/28 09:33:06;;;;;;;9.20;2.93;;;36.60;99.90;;;;;;5052137;28;20448;-83
2023/09/28 09:35:33;;;;;;;8.40;2.70;;;37.50;99.90;;;;;;5055938;28;20431;-82
2023/09/28 09:37:59;;;;;;;7.67;2.90;;;37.90;99.90;;;;;;5052114;28;20519;-81
2023/09/28 09:40:25;;;;;;;8.43;3.30;;;37.90;99.90;;;;;;5052219;28;20876;-82
2023/09/28 09:42:51;;;;;;;7.07;2.63;;;37.00;99.90;;;;;;5049275;28;20236;-81
2023/09/28 09:45:19;;;;;;;8.80;4.07;;;36.40;99.90;;;;;;5049810;28;20436;-82
2023/09/28 09:47:47;;;;;;;8.70;2.90;;;36.60;99.90;;;;;;5050836;28;20288;-81
2023/09/28 09:50:17;;;;;;;12.33;3.27;;;37.50;99.90;;;;;;5032521;28;20440;-79
2023/09/28 09:52:44;;;;;;;8.00;3.20;;;38.10;99.90;;;;;;5050142;28;20455;-82
2023/09/28 09:55:09;;;;;;;8.40;2.73;;;38.40;99.90;;;;;;5050679;28;20937;-82
2023/09/28 09:57:37;;;;;;;4.70;2.73;;;39.00;99.90;;;;;;5038810;28;20455;-81
2023/09/28 10:00:07;;;;;;;6.60;3.03;;;39.10;99.90;;;;;;5038390;28;20181;-82
2023/09/28 10:02:41;;;;;;;12.80;3.50;;;37.70;99.90;;;;;;5057449;28;21004;-81
2023/09/28 10:05:09;;;;;;;8.30;2.70;;;36.40;99.90;;;;;;5040213;28;20519;-81
2023/09/28 10:07:37;;;;;;;7.93;3.50;;;36.90;99.90;;;;;;5054917;28;20504;-81
2023/09/28 10:10:05;;;;;;;8.83;3.23;;;36.00;99.90;;;;;;5054977;28;20432;-81
2023/09/28 10:12:30;;;;;;;8.60;3.00;;;35.90;99.90;;;;;;5051536;28;20880;-80
2023/09/28 10:15:00;;;;;;;10.07;3.40;;;36.00;99.90;;;;;;5050334;28;20444;-81
2023/09/28 10:17:28;;;;;;;7.03;2.80;;;35.50;99.90;;;;;;5026755;28;20189;-81
2023/09/28 10:19:59;;;;;;;6.40;2.83;;;35.20;99.90;;;;;;5049428;28;20442;-80
2023/09/28 10:22:25;;;;;;;6.27;2.60;;;35.00;99.90;;;;;;5038130;28;20454;-80
2023/09/28 10:24:50;;;;;;;11.53;3.33;;;34.60;99.90;;;;;;5052684;28;20444;-80
2023/09/28 10:27:17;;;;;;;9.10;3.27;;;33.90;99.90;;;;;;5035568;28;20201;-79
2023/09/28 10:29:42;;;;;;;6.30;2.60;;;33.40;99.90;;;;;;5049404;28;20205;-81
2023/09/28 10:32:28;;;;;;;9.87;3.40;;;32.60;99.90;;;;;;5052802;28;20518;-81
2023/09/28 10:35:28;;;;;;;9.70;3.40;;;31.50;99.90;;;;;;5026517;28;20188;-80
2023/09/28 10:38:22;;;;;;;14.10;3.50;;;30.50;99.90;;;;;;5047185;28;20443;-80
2023/09/28 10:41:02;;;;;;;10.60;3.83;;;30.00;99.90;;;;;;5041369;28;20523;-80
2023/09/28 10:43:31;;;;;;;9.43;4.00;;;29.70;99.90;;;;;;5051129;28;20463;-80
2023/09/28 10:46:00;;;;;;;14.40;4.57;;;29.70;99.90;;;;;;5035732;28;20454;-80
2023/09/28 10:48:26;;;;;;;12.87;3.83;;;29.50;99.90;;;;;;5018085;28;20585;-80
2023/09/28 10:50:53;;;;;;;7.60;3.03;;;29.50;99.90;;;;;;5035929;28;20492;-78
2023/09/28 10:53:19;;;;;;;9.47;3.33;;;29.30;99.90;;;;;;5046874;28;20202;-79
2023/09/28 10:55:44;;;;;;;11.50;3.87;;;29.20;99.90;;;;;;5051477;28;20944;-81
2023/09/28 10:58:10;;;;;;;9.67;3.10;;;29.10;99.90;;;;;;5051805;28;20196;-80
2023/09/28 11:00:37;;;;;;;12.23;3.60;;;29.20;99.90;;;;;;5050901;28;20215;-80
2023/09/28 11:03:04;;;;;;;9.33;3.57;;;29.20;99.90;;;;;;5052652;28;20514;-81
2023/09/28 11:05:30;;;;;;;8.97;3.13;;;29.10;99.90;;;;;;5055028;28;20458;-79
2023/09/28 11:07:59;;;;;;;17.10;4.53;;;29.10;99.90;;;;;;5047550;28;20994;-81
2023/09/28 11:10:24;;;;;;;9.50;3.80;;;29.00;99.90;;;;;;5051985;28;20177;-80
2023/09/28 11:12:50;;;;;;;8.57;3.00;;;29.00;99.90;;;;;;5035482;28;20508;-81
2023/09/28 11:15:15;;;;;;;11.10;3.77;;;29.00;99.90;;;;;;5050662;28;20192;-80
2023/09/28 11:17:46;;;;;;;11.40;3.37;;;28.70;99.90;;;;;;5050060;28;20254;-81
2023/09/28 11:20:12;;;;;;;12.80;3.77;;;28.60;99.90;;;;;;5051566;28;20187;-80
2023/09/28 11:22:38;;;;;;;10.80;3.50;;;28.30;99.90;;;;;;5053618;28;20547;-80
2023/09/28 11:25:05;;;;;;;7.33;3.27;;;28.30;99.90;;;;;;5054771;28;20174;-80
2023/09/28 11:27:30;;;;;;;17.57;4.57;;;28.10;99.90;;;;;;5032727;28;20464;-79
2023/09/28 11:29:56;;;;;;;7.33;2.77;;;27.90;99.90;;;;;;5054011;28;20422;-79
2023/09/28 11:32:22;;;;;;;6.03;3.33;;;28.00;99.90;;;;;;5034532;28;20202;-77
2023/09/28 11:34:48;;;;;;;11.13;4.10;;;28.10;99.90;;;;;;5050967;28;20437;-78
2023/09/28 11:37:16;;;;;;;8.90;3.67;;;28.20;99.90;;;;;;5050789;28;20232;-79
2023/09/28 11:39:42;;;;;;;8.73;3.50;;;28.30;99.90;;;;;;5053003;28;20189;-79
2023/09/28 11:42:08;;;;;;;10.10;3.23;;;28.40;99.90;;;;;;5047214;28;21305;-80
2023/09/28 11:44:34;;;;;;;11.43;3.87;;;28.70;99.90;;;;;;5046570;28;20189;-79
2023/09/28 11:47:01;;;;;;;5.97;2.73;;;28.90;99.90;;;;;;5034287;28;20463;-79
2023/09/28 11:49:27;;;;;;;11.50;3.93;;;29.40;99.90;;;;;;5049548;28;20435;-81
2023/09/28 11:51:53;;;;;;;16.40;4.03;;;30.30;99.90;;;;;;5050928;28;20435;-79
2023/09/28 11:54:20;;;;;;;8.27;3.00;;;31.50;99.90;;;;;;5047907;28;20215;-80
2023/09/28 11:56:46;;;;;;;8.37;3.37;;;32.10;99.90;;;;;;5050068;28;20239;-79
2023/09/28 11:59:15;;;;;;;7.53;3.87;;;32.80;99.90;;;;;;5052909;28;20442;-79
2023/09/28 12:01:51;;;;;;;7.80;3.60;;;32.50;99.90;;;;;;5052117;28;20519;-79
2023/09/28 12:04:17;;;;;;;11.53;3.40;;;32.70;99.90;;;;;;5053960;28;20431;-80
2023/09/28 12:06:45;;;;;;;9.87;4.23;;;32.50;99.90;;;;;;5034058;28;21003;-79
2023/09/28 12:09:18;;;;;;;13.90;4.50;;;32.20;99.90;;;;;;5027878;28;20482;-80
2023/09/28 12:11:45;;;;;;;13.00;4.20;;;31.80;99.90;;;;;;5034449;28;20530;-79
2023/09/28 12:14:11;;;;;;;11.73;3.97;;;31.30;99.90;;;;;;5032835;28;20456;-80
2023/09/28 12:16:36;;;;;;;16.43;4.90;;;31.40;99.90;;;;;;5047983;28;20501;-79
2023/09/28 12:19:02;;;;;;;8.77;3.70;;;31.40;99.90;;;;;;5045671;28;20185;-79
2023/09/28 12:21:27;;;;;;;9.50;4.00;;;31.30;99.90;;;;;;5050811;28;20239;-77
2023/09/28 12:23:53;;;;;;;12.20;4.20;;;31.10;99.90;;;;;;5051851;28;20202;-79
2023/09/28 12:26:18;;;;;;;11.80;4.00;;;31.00;99.90;;;;;;5052502;28;20212;-79
2023/09/28 12:28:44;;;;;;;10.10;3.73;;;31.00;99.90;;;;;;5052036;28;20184;-79
2023/09/28 12:31:11;;;;;;;7.23;3.57;;;30.50;99.90;;;;;;5035447;28;20182;-80
2023/09/28 12:33:37;;;;;;;8.83;4.17;;;30.30;99.90;;;;;;5035919;28;20216;-80
2023/09/28 12:36:03;;;;;;;10.10;4.27;;;30.40;99.90;;;;;;5057967;28;20442;-80
2023/09/28 12:38:29;;;;;;;11.20;3.60;;;30.30;99.90;;;;;;5058256;28;20688;-79
2023/09/28 12:40:55;;;;;;;9.73;4.23;;;30.30;99.90;;;;;;5055561;28;20463;-81
2023/09/28 12:43:20;;;;;;;10.13;3.80;;;30.00;99.90;;;;;;5057227;28;20229;-79
2023/09/28 12:45:46;;;;;;;9.33;3.57;;;29.90;99.90;;;;;;5052601;28;20193;-79
2023/09/28 12:48:17;;;;;;;11.53;4.20;;;29.60;99.90;;;;;;5053141;28;20197;-80